Time;durP1;ratioP1;P1;durP2;ratioP2;P2;SDS_P1;SDS_P2;PMS_P1;PMS_P2;Temp;Humidity;BMP_temperature;BMP_pressure;BME280_temperature;BME280_humidity;BME280_pressure;Samples;Min_cycle;Max_cycle;Signal;HPM_P1;HPM_P2
2022/01/10 00:02:10;;;;;;;9.43;6.70;;;9.10;1.00;;;;;;5093246;28;20202;-70
2022/01/10 00:04:37;;;;;;;12.73;8.63;;;9.10;1.00;;;;;;5093514;28;20251;-75
2022/01/10 00:07:04;;;;;;;12.80;9.57;;;9.00;1.00;;;;;;5093082;28;20266;-70
2022/01/10 00:09:32;;;;;;;6.23;4.10;;;9.00;1.00;;;;;;5093740;28;20202;-73
2022/01/10 00:11:59;;;;;;;2.47;2.10;;;9.00;1.00;;;;;;5093023;28;20206;-73
2022/01/10 00:14:26;;;;;;;4.63;3.53;;;8.90;1.00;;;;;;5093087;28;20287;-72
2022/01/10 00:16:53;;;;;;;2.97;1.63;;;8.90;1.00;;;;;;5093746;28;20251;-70
2022/01/10 00:19:20;;;;;;;2.37;1.83;;;8.90;1.00;;;;;;5093292;28;20201;-71
2022/01/10 00:21:47;;;;;;;1.63;1.47;;;8.80;1.00;;;;;;5093322;28;20212;-71
2022/01/10 00:24:14;;;;;;;1.57;1.00;;;8.90;1.00;;;;;;5093012;28;20202;-72
2022/01/10 00:26:43;;;;;;;0.97;0.93;;;8.90;1.00;;;;;;5093113;28;20284;-71
2022/01/10 00:29:10;;;;;;;3.77;2.50;;;8.90;22.00;;;;;;5092567;28;20206;-84
2022/01/10 00:31:37;;;;;;;3.27;2.73;;;8.90;99.90;;;;;;5093027;28;20198;-69
2022/01/10 00:34:04;;;;;;;2.37;1.30;;;8.90;99.90;;;;;;5092604;28;20225;-69
2022/01/10 00:36:31;;;;;;;2.80;1.90;;;8.80;99.90;;;;;;5093045;28;20657;-69
2022/01/10 00:38:58;;;;;;;2.70;1.83;;;8.90;1.00;;;;;;5092652;28;20612;-69
2022/01/10 00:41:25;;;;;;;3.63;2.50;;;8.90;1.00;;;;;;5092542;28;20254;-69
2022/01/10 00:43:53;;;;;;;4.10;2.07;;;8.80;1.00;;;;;;5093038;28;20742;-69
2022/01/10 00:46:21;;;;;;;1.70;1.27;;;8.90;1.00;;;;;;5092641;28;20258;-69
2022/01/10 00:48:48;;;;;;;1.77;1.17;;;8.90;1.00;;;;;;5092611;28;20292;-68
2022/01/10 00:51:15;;;;;;;2.73;0.90;;;8.80;1.00;;;;;;5092310;28;20266;-68
2022/01/10 00:53:44;;;;;;;1.83;0.90;;;8.80;1.00;;;;;;5092416;28;20663;-69
2022/01/10 00:56:11;;;;;;;1.23;1.13;;;8.80;1.00;;;;;;5091918;28;20201;-69
2022/01/10 00:58:38;;;;;;;0.93;0.70;;;8.80;1.00;;;;;;5092627;28;20198;-70
2022/01/10 01:01:06;;;;;;;0.50;0.50;;;8.80;1.00;;;;;;5092136;28;20267;-70
2022/01/10 01:03:33;;;;;;;1.03;0.67;;;8.90;1.00;;;;;;5092169;28;20205;-70
2022/01/10 01:06:00;;;;;;;0.57;0.57;;;8.90;99.90;;;;;;5092111;28;20247;-70
2022/01/10 01:08:30;;;;;;;2.00;1.23;;;8.80;1.00;;;;;;5092584;28;20210;-69
2022/01/10 01:11:23;;;;;;;1.90;1.37;;;8.80;1.00;;;;;;5092091;28;20201;-68
2022/01/10 01:13:56;;;;;;;0.87;0.77;;;8.80;1.00;;;;;;5092370;28;20233;-70
2022/01/10 01:16:43;;;;;;;1.33;1.00;;;8.80;1.00;;;;;;5092566;28;20280;-69
2022/01/10 01:19:52;;;;;;;1.70;0.83;;;8.90;1.00;;;;;;5091601;28;20657;-70
2022/01/10 01:24:55;;;;;;;1.80;1.17;;;8.90;1.00;;;;;;5092251;28;20209;-69
2022/01/10 01:27:22;;;;;;;1.37;0.93;;;8.80;1.00;;;;;;5092260;28;20205;-69
2022/01/10 01:29:49;;;;;;;1.73;0.90;;;8.80;1.00;;;;;;5091875;28;20205;-69
2022/01/10 01:32:17;;;;;;;1.50;1.03;;;8.90;1.00;;;;;;5091480;28;20259;-69
2022/01/10 01:34:44;;;;;;;0.80;0.70;;;8.90;1.00;;;;;;5091675;28;20233;-79
2022/01/10 01:37:11;;;;;;;1.00;0.50;;;8.80;1.00;;;;;;5091675;28;20209;-69
2022/01/10 01:39:38;;;;;;;2.47;1.83;;;8.80;99.90;;;;;;5090864;28;20781;-69
2022/01/10 01:42:28;;;;;;;1.00;0.63;;;8.80;99.90;;;;;;5091290;28;20543;-69
2022/01/10 01:44:53;;;;;;;1.50;0.90;;;8.70;97.20;;;;;;5091724;28;20675;-71
2022/01/10 01:47:22;;;;;;;2.93;1.17;;;8.70;99.90;;;;;;5091623;28;20266;-68
2022/01/10 01:49:49;;;;;;;0.73;0.70;;;8.70;99.90;;;;;;5091534;28;20624;-70
2022/01/10 01:52:16;;;;;;;0.73;0.50;;;8.70;99.90;;;;;;5091225;28;20201;-69
2022/01/10 01:54:43;;;;;;;1.80;0.80;;;8.60;55.80;;;;;;5091169;28;20233;-70
2022/01/10 01:57:10;;;;;;;1.30;0.57;;;8.70;99.90;;;;;;5091206;28;20246;-70
2022/01/10 01:59:38;;;;;;;1.03;0.57;;;8.60;99.90;;;;;;5083999;28;20252;-72
2022/01/10 02:02:05;;;;;;;3.20;0.70;;;8.60;99.90;;;;;;5070938;28;20198;-71
2022/01/10 02:04:33;;;;;;;0.90;0.53;;;8.60;65.70;;;;;;5071333;28;20210;-70
2022/01/10 02:07:00;;;;;;;0.70;0.37;;;8.60;4.80;;;;;;5070567;28;20202;-69
2022/01/10 02:09:27;;;;;;;1.13;0.50;;;8.60;1.00;;;;;;5070958;28;20626;-70
2022/01/10 02:11:55;;;;;;;0.23;0.23;;;8.50;1.00;;;;;;5071295;28;20206;-78
2022/01/10 02:14:22;;;;;;;0.60;0.60;;;8.60;1.00;;;;;;5073109;28;20282;-70
2022/01/10 02:16:55;;;;;;;0.87;0.50;;;8.60;1.00;;;;;;5079800;28;20574;-76
2022/01/10 02:19:22;;;;;;;0.40;0.27;;;8.70;1.00;;;;;;5091051;28;20205;-69
2022/01/10 02:21:51;;;;;;;1.03;0.40;;;8.70;1.00;;;;;;5085828;28;20209;-77
2022/01/10 02:24:18;;;;;;;1.17;0.57;;;8.60;1.00;;;;;;5090156;28;20596;-77
2022/01/10 02:26:48;;;;;;;0.30;0.30;;;8.60;1.00;;;;;;5090730;28;20209;-70
2022/01/10 02:29:16;;;;;;;0.60;0.30;;;8.60;53.90;;;;;;5089745;28;20252;-72
2022/01/10 02:31:44;;;;;;;0.80;0.50;;;8.50;99.90;;;;;;5090441;28;20653;-70
2022/01/10 02:34:16;;;;;;;3.53;0.63;;;8.60;99.90;;;;;;5090533;28;20225;-70
2022/01/10 02:36:43;;;;;;;1.00;0.40;;;8.60;99.90;;;;;;5090612;28;20209;-80
2022/01/10 02:39:12;;;;;;;0.50;0.50;;;8.60;1.00;;;;;;5090004;28;20314;-83
2022/01/10 02:41:40;;;;;;;1.00;0.47;;;8.60;1.00;;;;;;5090621;28;20615;-71
2022/01/10 02:44:11;;;;;;;0.60;0.23;;;8.60;1.00;;;;;;5090205;28;20209;-75
2022/01/10 02:46:39;;;;;;;1.17;0.33;;;8.60;1.00;;;;;;5089953;28;20263;-70
2022/01/10 02:49:10;;;;;;;0.47;0.30;;;8.60;1.00;;;;;;5089994;28;20198;-70
2022/01/10 02:51:37;;;;;;;1.53;0.80;;;8.50;1.00;;;;;;5091580;28;20255;-71
2022/01/10 02:54:04;;;;;;;0.30;0.30;;;8.60;1.00;;;;;;5094115;28;20650;-71
2022/01/10 02:56:33;;;;;;;0.87;0.50;;;8.60;1.00;;;;;;5094979;28;20209;-71
2022/01/10 02:59:00;;;;;;;0.83;0.50;;;8.50;1.00;;;;;;5094204;28;20643;-85
2022/01/10 03:01:27;;;;;;;0.13;0.13;;;8.50;1.00;;;;;;5094042;28;20626;-82
2022/01/10 03:03:54;;;;;;;0.20;0.20;;;8.50;1.00;;;;;;5090035;28;20205;-69
2022/01/10 03:06:21;;;;;;;0.90;0.30;;;8.50;99.90;;;;;;5094619;28;20201;-69
2022/01/10 03:08:48;;;;;;;0.30;0.20;;;8.50;99.90;;;;;;5089771;28;20293;-77
2022/01/10 03:11:15;;;;;;;0.50;0.30;;;8.50;99.90;;;;;;5094854;28;20266;-72
2022/01/10 03:13:44;;;;;;;0.40;0.40;;;8.50;99.90;;;;;;5094512;28;20229;-71
2022/01/10 03:16:10;;;;;;;0.93;0.20;;;8.50;99.90;;;;;;5094046;28;20213;-71
2022/01/10 03:18:37;;;;;;;0.33;0.30;;;8.60;99.90;;;;;;5093329;28;20635;-71
2022/01/10 03:21:04;;;;;;;0.53;0.50;;;8.50;99.90;;;;;;5081327;28;20268;-80
2022/01/10 03:23:31;;;;;;;0.30;0.30;;;8.60;99.90;;;;;;5096239;28;20209;-82
2022/01/10 03:25:58;;;;;;;2.27;0.30;;;8.50;99.90;;;;;;5093920;28;20205;-71
2022/01/10 03:28:25;;;;;;;0.57;0.30;;;8.50;98.20;;;;;;5094384;28;20251;-73
2022/01/10 03:30:54;;;;;;;0.30;0.30;;;8.50;1.00;;;;;;5094072;28;20235;-71
2022/01/10 03:33:21;;;;;;;0.23;0.20;;;8.50;1.00;;;;;;5093729;28;20205;-72
2022/01/10 03:35:49;;;;;;;0.40;0.27;;;8.50;1.00;;;;;;5089704;28;20666;-72
2022/01/10 03:38:16;;;;;;;0.50;0.30;;;8.60;1.00;;;;;;5084461;28;20225;-71
2022/01/10 03:40:43;;;;;;;1.60;0.20;;;8.60;1.00;;;;;;5093864;28;20197;-72
2022/01/10 03:43:10;;;;;;;0.30;0.20;;;8.50;1.00;;;;;;5093389;28;20201;-76
2022/01/10 03:45:37;;;;;;;0.30;0.30;;;8.50;1.00;;;;;;5092514;28;20197;-76
2022/01/10 03:48:09;;;;;;;0.37;0.20;;;8.60;1.00;;;;;;5092154;28;20231;-76
2022/01/10 03:50:36;;;;;;;0.20;0.20;;;8.60;1.00;;;;;;5092217;28;20665;-75
2022/01/10 03:53:06;;;;;;;0.70;0.30;;;8.60;1.00;;;;;;5086347;28;20695;-72
2022/01/10 03:55:33;;;;;;;0.40;0.30;;;8.50;1.00;;;;;;5086824;28;20607;-72
2022/01/10 03:58:00;;;;;;;0.40;0.30;;;8.60;1.00;;;;;;5092059;28;20730;-71
2022/01/10 04:00:27;;;;;;;0.27;0.20;;;8.60;1.00;;;;;;5092613;28;20664;-72
2022/01/10 04:02:59;;;;;;;0.87;0.50;;;8.60;1.00;;;;;;5092462;28;20304;-71
2022/01/10 04:05:27;;;;;;;0.80;0.40;;;8.60;1.00;;;;;;5092044;28;20288;-74
2022/01/10 04:07:54;;;;;;;0.23;0.20;;;8.50;1.00;;;;;;5085735;28;20198;-78
2022/01/10 04:10:21;;;;;;;1.17;0.53;;;8.50;1.00;;;;;;5088913;28;20270;-71
2022/01/10 04:12:48;;;;;;;0.50;0.50;;;8.40;1.00;;;;;;5079891;28;20267;-71
2022/01/10 04:15:15;;;;;;;0.47;0.37;;;8.40;1.00;;;;;;5070199;28;20226;-71
2022/01/10 04:17:42;;;;;;;0.77;0.67;;;8.40;99.90;;;;;;5071207;28;20206;-70
2022/01/10 04:20:10;;;;;;;0.93;0.67;;;8.40;99.90;;;;;;5070471;28;20665;-70
2022/01/10 04:22:38;;;;;;;0.70;0.67;;;8.40;99.90;;;;;;5072040;28;20198;-70
2022/01/10 04:25:07;;;;;;;1.87;0.93;;;8.40;99.90;;;;;;5071519;28;20252;-72
2022/01/10 04:27:33;;;;;;;0.90;0.60;;;8.40;1.00;;;;;;5071588;28;20198;-72
2022/01/10 04:30:01;;;;;;;0.90;0.57;;;8.40;1.00;;;;;;5071729;28;20202;-71
2022/01/10 04:32:31;;;;;;;1.00;0.90;;;8.40;1.00;;;;;;5071986;28;20255;-71
2022/01/10 04:34:58;;;;;;;1.10;0.77;;;8.40;1.00;;;;;;5071202;28;20279;-70
2022/01/10 04:37:25;;;;;;;1.60;0.70;;;8.40;1.00;;;;;;5071955;28;20661;-71
2022/01/10 04:39:53;;;;;;;1.20;0.90;;;8.30;1.00;;;;;;5070923;28;20619;-71
2022/01/10 04:42:20;;;;;;;2.53;0.80;;;8.40;1.00;;;;;;5071482;28;20293;-71
2022/01/10 04:44:49;;;;;;;1.40;0.80;;;8.40;1.00;;;;;;5031949;28;1153328;-72
2022/01/10 04:47:17;;;;;;;0.40;0.40;;;8.30;1.00;;;;;;5072117;28;20597;-71
2022/01/10 04:50:04;;;;;;;0.97;0.53;;;8.40;1.00;;;;;;5072409;28;20202;-71
2022/01/10 04:52:32;;;;;;;0.67;0.60;;;8.40;1.00;;;;;;5072361;28;20734;-72
2022/01/10 04:55:01;;;;;;;0.73;0.57;;;8.40;1.00;;;;;;5072160;28;20230;-72
2022/01/10 04:57:28;;;;;;;0.63;0.63;;;8.50;1.00;;;;;;5072303;28;20662;-71
2022/01/10 04:59:55;;;;;;;1.30;0.80;;;8.40;1.00;;;;;;5072436;28;20620;-71
2022/01/10 05:02:22;;;;;;;0.60;0.53;;;8.30;1.00;;;;;;5072402;28;20255;-71
2022/01/10 05:04:50;;;;;;;1.33;0.60;;;8.20;99.90;;;;;;5072145;28;20739;-70
2022/01/10 05:07:17;;;;;;;0.70;0.60;;;8.20;1.00;;;;;;5071658;28;20206;-69
2022/01/10 05:09:44;;;;;;;0.40;0.30;;;8.20;1.00;;;;;;5072047;28;20735;-70
2022/01/10 05:12:13;;;;;;;0.93;0.50;;;8.30;1.00;;;;;;5071565;28;20206;-70
2022/01/10 05:14:40;;;;;;;0.70;0.47;;;8.20;1.00;;;;;;5071182;28;20229;-70
2022/01/10 05:17:07;;;;;;;0.40;0.40;;;8.20;1.00;;;;;;5071343;28;20213;-70
2022/01/10 05:19:34;;;;;;;0.50;0.40;;;8.20;1.00;;;;;;5071842;28;20244;-69
2022/01/10 05:22:01;;;;;;;0.60;0.50;;;8.30;1.00;;;;;;5071641;28;20206;-70
2022/01/10 05:24:28;;;;;;;0.70;0.40;;;8.30;1.00;;;;;;5071992;28;20202;-70
2022/01/10 05:26:55;;;;;;;0.50;0.30;;;8.20;1.00;;;;;;5071991;28;20251;-70
2022/01/10 05:29:23;;;;;;;0.40;0.30;;;8.20;1.00;;;;;;5072064;28;20581;-70
2022/01/10 05:31:51;;;;;;;0.40;0.30;;;8.20;1.00;;;;;;5071766;28;20251;-70
2022/01/10 05:34:18;;;;;;;0.40;0.40;;;8.30;1.00;;;;;;5071145;28;20229;-70
2022/01/10 05:36:45;;;;;;;0.30;0.30;;;8.20;1.00;;;;;;5071978;28;20272;-70
2022/01/10 05:39:12;;;;;;;0.70;0.50;;;8.30;99.90;;;;;;5071292;28;20202;-70
2022/01/10 05:41:39;;;;;;;0.30;0.30;;;8.30;99.90;;;;;;5071565;28;20206;-70
2022/01/10 05:44:06;;;;;;;0.93;0.60;;;8.30;99.90;;;;;;5071136;28;20627;-70
2022/01/10 05:46:37;;;;;;;1.07;0.57;;;8.30;1.00;;;;;;5071163;28;20661;-70
2022/01/10 05:49:07;;;;;;;1.07;0.73;;;8.40;1.00;;;;;;5070743;28;20657;-70
2022/01/10 05:51:34;;;;;;;1.00;0.80;;;8.30;1.00;;;;;;5070923;28;20208;-70
2022/01/10 05:54:02;;;;;;;1.10;0.60;;;8.40;1.00;;;;;;5070784;28;20209;-70
2022/01/10 05:56:29;;;;;;;1.63;1.20;;;8.40;1.00;;;;;;5070786;28;20263;-70
2022/01/10 05:58:56;;;;;;;1.70;1.47;;;8.40;1.00;;;;;;5071188;28;20202;-70
2022/01/10 06:01:23;;;;;;;2.30;1.10;;;8.40;1.00;;;;;;5071007;28;20202;-70
2022/01/10 06:03:51;;;;;;;3.60;1.03;;;8.30;99.90;;;;;;5071769;28;20206;-89
2022/01/10 06:06:19;;;;;;;1.43;0.87;;;8.40;99.90;;;;;;5070605;28;20206;-71
2022/01/10 06:08:46;;;;;;;1.90;0.87;;;8.30;1.00;;;;;;5071149;28;20665;-80
2022/01/10 06:11:14;;;;;;;1.07;0.77;;;8.40;1.00;;;;;;5070655;28;20205;-73
2022/01/10 06:13:41;;;;;;;1.63;0.80;;;8.50;1.00;;;;;;5070965;28;20735;-71
2022/01/10 06:16:08;;;;;;;1.40;0.90;;;8.40;1.00;;;;;;5070617;28;20229;-76
2022/01/10 06:18:35;;;;;;;1.33;1.03;;;8.40;1.00;;;;;;5071129;28;20198;-71
2022/01/10 06:21:03;;;;;;;1.23;1.00;;;8.40;1.00;;;;;;5071322;28;20203;-71
2022/01/10 06:23:30;;;;;;;1.87;1.43;;;8.40;1.00;;;;;;5071002;28;20237;-87
2022/01/10 06:25:57;;;;;;;2.70;1.73;;;8.40;1.00;;;;;;5070612;28;20210;-78
2022/01/10 06:28:24;;;;;;;2.53;1.30;;;8.50;1.00;;;;;;5071158;28;20209;-87
2022/01/10 06:30:51;;;;;;;1.83;1.30;;;8.50;1.00;;;;;;5070873;28;20206;-69
2022/01/10 06:33:18;;;;;;;1.83;1.50;;;8.50;1.00;;;;;;5070309;28;20248;-69
2022/01/10 06:35:45;;;;;;;1.50;1.30;;;8.40;99.90;;;;;;5070601;28;20237;-69
2022/01/10 06:38:14;;;;;;;1.60;1.37;;;8.40;99.90;;;;;;5070317;28;20202;-70
2022/01/10 06:40:40;;;;;;;1.70;1.40;;;8.50;99.90;;;;;;5070754;28;20255;-70
2022/01/10 06:43:08;;;;;;;2.87;1.93;;;8.50;37.60;;;;;;5068694;28;20202;-77
2022/01/10 06:45:37;;;;;;;2.60;2.20;;;8.50;1.00;;;;;;5069430;28;20232;-70
2022/01/10 06:48:05;;;;;;;2.23;2.00;;;8.50;1.00;;;;;;5082084;28;20243;-69
2022/01/10 06:50:32;;;;;;;2.40;2.13;;;8.50;1.00;;;;;;5082458;28;20721;-68
2022/01/10 06:53:00;;;;;;;2.70;2.50;;;8.50;1.00;;;;;;5090095;28;20558;-69
2022/01/10 06:55:28;;;;;;;2.83;2.50;;;8.50;1.00;;;;;;5090274;28;20240;-70
2022/01/10 06:57:55;;;;;;;2.60;2.40;;;8.50;1.00;;;;;;5089573;28;20676;-72
2022/01/10 07:00:22;;;;;;;2.77;2.57;;;8.50;1.00;;;;;;5090432;28;20637;-77
2022/01/10 07:02:49;;;;;;;2.97;1.97;;;8.60;1.00;;;;;;5086969;28;20201;-71
2022/01/10 07:05:16;;;;;;;3.60;2.70;;;8.50;1.00;;;;;;5089791;28;20255;-71
2022/01/10 07:07:45;;;;;;;3.10;2.30;;;8.50;1.00;;;;;;5090138;28;20258;-71
2022/01/10 07:10:12;;;;;;;2.10;1.90;;;8.50;1.00;;;;;;5089638;28;20712;-71
2022/01/10 07:12:41;;;;;;;2.63;1.97;;;8.40;1.00;;;;;;5090614;28;20206;-71
2022/01/10 07:15:09;;;;;;;3.20;2.30;;;8.40;1.00;;;;;;5075212;28;20222;-75
2022/01/10 07:17:36;;;;;;;3.03;1.77;;;8.50;1.00;;;;;;5090366;28;20234;-76
2022/01/10 07:20:04;;;;;;;2.07;1.87;;;8.50;1.00;;;;;;5089620;28;20634;-70
2022/01/10 07:22:31;;;;;;;2.30;1.70;;;8.50;1.00;;;;;;5090168;28;20209;-80
2022/01/10 07:24:58;;;;;;;2.63;1.80;;;8.40;99.90;;;;;;5090125;28;20278;-70
2022/01/10 07:27:25;;;;;;;2.67;1.70;;;8.50;1.00;;;;;;5090340;28;20209;-72
2022/01/10 07:29:53;;;;;;;2.87;2.20;;;8.40;1.00;;;;;;5090638;28;20210;-78
2022/01/10 07:32:20;;;;;;;1.57;1.43;;;8.40;1.00;;;;;;5089225;28;20202;-80
2022/01/10 07:34:48;;;;;;;1.93;1.33;;;8.40;1.00;;;;;;5090403;28;20271;-71
2022/01/10 07:37:16;;;;;;;1.67;1.30;;;8.40;1.00;;;;;;5089967;28;20250;-71
2022/01/10 07:39:43;;;;;;;1.57;1.20;;;8.40;1.00;;;;;;5087748;28;20259;-71
2022/01/10 07:42:10;;;;;;;1.87;1.20;;;8.40;1.00;;;;;;5093500;28;20209;-70
2022/01/10 07:44:37;;;;;;;2.27;1.50;;;8.40;1.00;;;;;;5093563;28;20262;-72
2022/01/10 07:47:05;;;;;;;2.30;1.43;;;8.50;1.00;;;;;;5093456;28;20209;-73
2022/01/10 07:49:32;;;;;;;2.20;1.50;;;8.50;1.00;;;;;;5092986;28;20209;-70
2022/01/10 07:51:59;;;;;;;2.33;1.53;;;8.50;1.00;;;;;;5093135;28;20622;-72
2022/01/10 07:54:26;;;;;;;2.20;1.50;;;8.50;1.00;;;;;;5094043;28;20205;-73
2022/01/10 07:56:54;;;;;;;2.27;1.77;;;8.50;1.00;;;;;;5093675;28;20241;-71
2022/01/10 07:59:21;;;;;;;3.37;2.20;;;8.60;1.00;;;;;;5093230;28;20561;-70
2022/01/10 08:01:49;;;;;;;1.97;1.43;;;8.50;1.00;;;;;;5081473;28;20241;-71
2022/01/10 08:04:18;;;;;;;3.77;1.70;;;8.50;1.00;;;;;;5071511;28;20626;-70
2022/01/10 08:06:45;;;;;;;2.47;2.00;;;8.50;1.00;;;;;;5071527;28;20627;-73
2022/01/10 08:09:12;;;;;;;3.20;1.70;;;8.40;1.00;;;;;;5072336;28;20263;-73
2022/01/10 08:11:39;;;;;;;2.23;1.70;;;8.40;1.00;;;;;;5072831;28;20719;-76
2022/01/10 08:14:06;;;;;;;3.20;2.70;;;8.40;1.00;;;;;;5072798;28;20256;-75
2022/01/10 08:16:33;;;;;;;2.30;2.10;;;8.40;1.00;;;;;;5072990;28;20705;-77
2022/01/10 08:19:00;;;;;;;2.07;1.70;;;8.40;1.00;;;;;;5072869;28;20260;-76
2022/01/10 08:21:29;;;;;;;2.60;2.03;;;8.40;1.00;;;;;;5072981;28;20685;-74
2022/01/10 08:23:57;;;;;;;3.73;3.43;;;8.40;1.00;;;;;;5073114;28;20247;-74
2022/01/10 08:26:24;;;;;;;1.50;1.20;;;8.40;1.00;;;;;;5073254;28;20206;-74
2022/01/10 08:28:51;;;;;;;1.37;1.00;;;8.30;1.00;;;;;;5072617;28;20255;-75
2022/01/10 08:31:18;;;;;;;1.10;0.80;;;8.30;1.00;;;;;;5072513;28;20206;-75
2022/01/10 08:33:46;;;;;;;1.20;1.10;;;8.20;1.00;;;;;;5072214;28;20665;-74
2022/01/10 08:36:13;;;;;;;1.03;0.93;;;8.30;1.00;;;;;;5072398;28;20667;-77
2022/01/10 08:38:42;;;;;;;1.03;0.83;;;8.30;99.90;;;;;;5072949;28;20206;-77
2022/01/10 08:41:09;;;;;;;0.83;0.70;;;8.30;1.00;;;;;;5071166;28;20202;-76
2022/01/10 08:43:36;;;;;;;1.10;0.90;;;8.20;1.00;;;;;;5071947;28;20202;-75
2022/01/10 08:46:04;;;;;;;1.20;0.77;;;8.20;99.90;;;;;;5080875;28;20677;-76
2022/01/10 08:48:31;;;;;;;1.23;0.70;;;8.20;53.00;;;;;;5091256;28;20549;-73
2022/01/10 08:50:58;;;;;;;1.30;0.83;;;8.20;1.00;;;;;;5074048;28;20206;-74
2022/01/10 08:53:25;;;;;;;2.03;1.57;;;8.30;1.00;;;;;;5072884;28;20247;-75
2022/01/10 08:55:53;;;;;;;1.90;1.40;;;8.40;1.00;;;;;;5072600;28;20246;-73
2022/01/10 08:58:21;;;;;;;1.57;1.10;;;8.40;1.00;;;;;;5090909;28;20693;-76
2022/01/10 09:00:48;;;;;;;1.60;1.50;;;8.30;1.00;;;;;;5092206;28;20213;-73
2022/01/10 09:03:15;;;;;;;1.40;1.20;;;8.40;1.00;;;;;;5078452;28;20690;-74
2022/01/10 09:05:42;;;;;;;1.00;0.90;;;8.40;1.00;;;;;;5090417;28;20211;-73
2022/01/10 09:08:10;;;;;;;3.50;0.60;;;8.30;99.90;;;;;;5085397;28;20284;-75
2022/01/10 09:10:37;;;;;;;3.00;1.03;;;8.30;1.00;;;;;;5089151;28;20206;-73
2022/01/10 09:13:07;;;;;;;2.20;0.80;;;8.30;1.00;;;;;;5077131;28;20211;-73
2022/01/10 09:15:34;;;;;;;3.73;0.90;;;8.30;1.00;;;;;;5091905;28;20723;-74
2022/01/10 09:18:01;;;;;;;1.17;0.80;;;8.40;1.00;;;;;;5082210;28;20197;-74
2022/01/10 09:20:29;;;;;;;2.40;1.33;;;8.40;1.00;;;;;;5091930;28;20259;-74
2022/01/10 09:22:56;;;;;;;0.60;0.43;;;8.50;1.00;;;;;;5092093;28;20613;-75
2022/01/10 09:25:23;;;;;;;0.97;0.47;;;8.40;99.90;;;;;;5092144;28;20209;-75
2022/01/10 09:27:50;;;;;;;1.73;0.70;;;8.40;1.00;;;;;;5080363;28;20202;-75
2022/01/10 09:30:18;;;;;;;0.40;0.40;;;8.30;1.00;;;;;;5088069;28;20218;-74
2022/01/10 09:32:46;;;;;;;1.00;0.70;;;8.40;1.00;;;;;;5081051;28;20201;-75
2022/01/10 09:35:13;;;;;;;2.50;0.63;;;8.40;1.00;;;;;;5081895;28;20206;-74
2022/01/10 09:37:40;;;;;;;1.40;0.73;;;8.40;1.00;;;;;;5088714;28;20259;-76
2022/01/10 09:40:08;;;;;;;5.73;2.87;;;8.50;1.00;;;;;;5088108;28;20208;-76
2022/01/10 09:42:36;;;;;;;3.23;1.30;;;8.40;1.00;;;;;;5089423;28;20201;-76
2022/01/10 09:45:03;;;;;;;1.80;1.50;;;8.40;99.90;;;;;;5081642;28;20635;-75
2022/01/10 09:47:31;;;;;;;0.90;0.70;;;8.30;99.90;;;;;;5082726;28;20278;-75
2022/01/10 09:49:58;;;;;;;3.43;2.33;;;8.30;99.90;;;;;;5074921;28;20600;-74
2022/01/10 09:52:26;;;;;;;2.53;2.10;;;8.30;99.90;;;;;;5077478;28;20758;-75
2022/01/10 09:54:54;;;;;;;2.90;1.40;;;8.40;99.90;;;;;;5079102;28;20209;-74
2022/01/10 09:57:21;;;;;;;2.20;0.90;;;8.40;99.90;;;;;;5077578;28;20234;-75
2022/01/10 09:59:48;;;;;;;1.40;1.30;;;8.40;99.90;;;;;;5090319;28;20209;-75
2022/01/10 10:02:16;;;;;;;2.77;1.17;;;8.40;99.90;;;;;;5087826;28;20844;-74
2022/01/10 10:04:45;;;;;;;1.93;1.70;;;8.50;99.90;;;;;;5072326;28;20234;-74
2022/01/10 10:07:13;;;;;;;5.83;1.40;;;8.50;99.90;;;;;;5075496;28;20255;-75
2022/01/10 10:09:40;;;;;;;4.23;1.23;;;8.50;99.90;;;;;;5076672;28;20213;-74
2022/01/10 10:12:08;;;;;;;1.93;1.00;;;8.60;99.90;;;;;;5080139;28;20213;-76
2022/01/10 10:14:35;;;;;;;2.27;1.40;;;8.60;99.90;;;;;;5086696;28;20753;-73
2022/01/10 10:17:12;;;;;;;2.83;1.53;;;8.60;99.90;;;;;;5081180;28;20225;-77
2022/01/10 10:19:39;;;;;;;3.50;1.10;;;8.60;99.90;;;;;;5079239;28;20198;-78
2022/01/10 10:22:07;;;;;;;1.53;1.30;;;8.60;99.90;;;;;;5078748;28;20210;-83
2022/01/10 10:24:34;;;;;;;1.30;0.80;;;8.60;99.90;;;;;;5076735;28;20259;-74
2022/01/10 10:27:02;;;;;;;0.77;0.53;;;8.70;99.90;;;;;;5085766;28;20202;-77
2022/01/10 10:29:29;;;;;;;0.83;0.77;;;8.70;99.90;;;;;;5082820;28;20359;-80
2022/01/10 10:31:58;;;;;;;0.77;0.70;;;8.70;61.60;;;;;;5072487;28;20209;-73
2022/01/10 10:34:28;;;;;;;0.90;0.60;;;8.70;62.60;;;;;;5084470;28;20244;-73
2022/01/10 10:37:06;;;;;;;1.47;0.90;;;8.80;99.90;;;;;;5090308;28;20236;-77
2022/01/10 10:39:36;;;;;;;1.33;0.73;;;8.90;84.70;;;;;;5081987;28;20205;-77
2022/01/10 10:42:07;;;;;;;1.20;0.90;;;8.90;1.00;;;;;;5090404;28;20279;-81
2022/01/10 10:44:34;;;;;;;1.37;1.10;;;8.90;1.00;;;;;;5075911;28;20258;-75
2022/01/10 10:47:03;;;;;;;0.63;0.40;;;8.90;1.00;;;;;;5070340;28;20662;-75
2022/01/10 10:49:34;;;;;;;0.57;0.57;;;8.80;1.00;;;;;;5071106;28;20212;-77
2022/01/10 10:52:03;;;;;;;0.83;0.50;;;8.90;1.00;;;;;;5076537;28;20292;-81
2022/01/10 10:54:32;;;;;;;0.80;0.60;;;8.90;1.00;;;;;;5091014;28;20202;-80
2022/01/10 10:57:02;;;;;;;0.93;0.63;;;9.00;1.00;;;;;;5077837;28;20226;-77
2022/01/10 10:59:31;;;;;;;1.40;0.33;;;8.90;1.00;;;;;;5080471;28;20218;-76
2022/01/10 11:01:59;;;;;;;1.13;1.03;;;9.00;1.00;;;;;;5070384;28;20674;-77
2022/01/10 11:04:26;;;;;;;0.57;0.40;;;8.90;1.00;;;;;;5070909;28;20210;-78
2022/01/10 11:06:53;;;;;;;1.43;0.40;;;8.90;1.00;;;;;;5070989;28;20663;-75
2022/01/10 11:09:22;;;;;;;0.67;0.40;;;8.90;1.00;;;;;;5070617;28;20735;-76
2022/01/10 11:11:49;;;;;;;0.70;0.60;;;8.90;1.00;;;;;;5086448;28;20209;-77
2022/01/10 11:14:22;;;;;;;0.63;0.50;;;8.90;1.00;;;;;;5094741;28;20680;-79
2022/01/10 11:16:50;;;;;;;3.03;1.23;;;8.90;1.00;;;;;;5092891;28;20286;-78
2022/01/10 11:19:21;;;;;;;4.07;2.10;;;8.90;1.00;;;;;;5093896;28;20630;-77
2022/01/10 11:21:54;;;;;;;1.73;1.30;;;8.90;1.00;;;;;;5094891;28;20206;-84
2022/01/10 11:24:46;;;;;;;1.87;1.57;;;8.90;1.00;;;;;;5095052;28;20201;-78
2022/01/10 11:27:32;;;;;;;1.20;1.00;;;9.00;1.00;;;;;;5094783;28;20201;-75
2022/01/10 11:30:22;;;;;;;3.70;1.27;;;8.90;1.00;;;;;;5094556;28;20206;-83
2022/01/10 11:32:56;;;;;;;0.53;0.50;;;8.90;1.00;;;;;;5094548;28;20209;-81
2022/01/10 11:35:26;;;;;;;1.53;0.93;;;8.70;1.00;;;;;;5093779;28;20628;-77
2022/01/10 11:37:53;;;;;;;1.57;1.10;;;8.70;1.00;;;;;;5095025;28;20260;-79
2022/01/10 11:40:21;;;;;;;0.97;0.97;;;8.70;1.00;;;;;;5092573;28;20676;-79
2022/01/10 11:42:54;;;;;;;0.93;0.57;;;8.60;1.00;;;;;;5078638;28;20283;-79
2022/01/10 11:45:22;;;;;;;0.30;0.30;;;8.60;1.00;;;;;;5081654;28;20625;-79
2022/01/10 11:48:15;;;;;;;1.03;0.50;;;8.60;1.00;;;;;;5081481;28;20623;-74
2022/01/10 11:50:44;;;;;;;0.80;0.60;;;8.50;1.00;;;;;;5078905;28;20216;-75
2022/01/10 11:53:12;;;;;;;1.20;0.40;;;8.50;1.00;;;;;;5084328;28;20259;-75
2022/01/10 11:55:43;;;;;;;0.90;0.60;;;8.60;1.00;;;;;;5093883;28;20205;-79
2022/01/10 11:58:16;;;;;;;1.70;1.10;;;8.70;1.00;;;;;;5093552;28;20312;-75
2022/01/10 12:00:45;;;;;;;1.10;0.90;;;8.70;1.00;;;;;;5094057;28;20209;-77
2022/01/10 12:03:12;;;;;;;1.73;0.77;;;8.80;1.00;;;;;;5093506;28;20665;-74
2022/01/10 12:05:40;;;;;;;1.20;0.67;;;8.80;1.00;;;;;;5081515;28;20267;-78
2022/01/10 12:08:09;;;;;;;1.30;0.63;;;8.70;1.00;;;;;;5092834;28;20217;-80
2022/01/10 12:10:36;;;;;;;1.70;1.30;;;8.70;1.00;;;;;;5094280;28;20206;-77
2022/01/10 12:13:09;;;;;;;1.23;1.07;;;8.80;1.00;;;;;;5091792;28;20673;-79
2022/01/10 12:15:37;;;;;;;3.00;1.30;;;8.90;1.00;;;;;;5073211;28;20198;-73
2022/01/10 12:18:07;;;;;;;1.50;1.07;;;9.00;1.00;;;;;;5074642;28;20234;-77
2022/01/10 12:20:35;;;;;;;1.30;1.00;;;9.00;1.00;;;;;;5087448;28;20559;-75
2022/01/10 12:23:02;;;;;;;2.13;1.47;;;8.90;1.00;;;;;;5088357;28;20747;-77
2022/01/10 12:25:29;;;;;;;1.93;1.33;;;8.90;1.00;;;;;;5089152;28;20208;-75
2022/01/10 12:28:00;;;;;;;2.83;1.40;;;9.00;1.00;;;;;;5074841;28;20206;-76
2022/01/10 12:30:27;;;;;;;1.93;1.37;;;9.00;1.00;;;;;;5091969;28;20665;-76
2022/01/10 12:32:55;;;;;;;1.80;0.90;;;9.00;1.00;;;;;;5092031;28;20270;-75
2022/01/10 12:35:24;;;;;;;1.00;0.93;;;8.90;1.00;;;;;;5086001;28;20235;-74
2022/01/10 12:37:57;;;;;;;3.27;1.27;;;8.80;1.00;;;;;;5090988;28;20275;-74
2022/01/10 12:40:31;;;;;;;1.93;1.17;;;8.90;1.00;;;;;;5087355;28;20205;-76
2022/01/10 12:42:59;;;;;;;1.23;0.97;;;8.80;1.00;;;;;;5088829;28;20201;-74
2022/01/10 12:45:31;;;;;;;1.50;1.40;;;8.80;1.00;;;;;;5091337;28;20213;-78
2022/01/10 12:47:58;;;;;;;2.17;1.50;;;8.90;1.00;;;;;;5079885;28;20575;-74
2022/01/10 12:50:27;;;;;;;2.70;1.20;;;8.90;1.00;;;;;;5072122;28;20252;-73
2022/01/10 12:52:54;;;;;;;1.87;1.67;;;8.90;1.00;;;;;;5072555;28;20201;-78
2022/01/10 12:55:21;;;;;;;3.67;1.83;;;8.90;1.00;;;;;;5083110;28;20213;-73
2022/01/10 12:57:50;;;;;;;3.23;2.33;;;8.90;1.00;;;;;;5084672;28;20270;-76
2022/01/10 13:00:17;;;;;;;2.03;1.73;;;9.00;1.00;;;;;;5091682;28;20329;-77
2022/01/10 13:02:44;;;;;;;1.43;1.00;;;9.00;1.00;;;;;;5088318;28;20210;-76
2022/01/10 13:05:14;;;;;;;1.47;0.90;;;9.00;1.00;;;;;;5092096;28;20734;-76
2022/01/10 13:07:44;;;;;;;1.33;0.90;;;8.90;1.00;;;;;;5092479;28;20206;-77
2022/01/10 13:10:19;;;;;;;2.87;1.23;;;8.90;1.00;;;;;;5091775;28;20202;-76
2022/01/10 13:12:48;;;;;;;1.20;0.93;;;8.90;1.00;;;;;;5091907;28;20656;-77
2022/01/10 13:15:15;;;;;;;1.33;0.70;;;8.80;1.00;;;;;;5091912;28;20202;-76